createdAt,value
2019-05-26T00:01:12.778Z,83.70
2019-05-26T00:04:01.529Z,83.60
2019-05-26T00:06:50.452Z,83.50
2019-05-26T00:09:38.851Z,83.40
2019-05-26T00:12:27.653Z,83.20
2019-05-26T00:15:16.732Z,83.60
2019-05-26T00:18:05.081Z,83.60
2019-05-26T00:20:53.917Z,84.20
2019-05-26T00:23:42.341Z,84.00
2019-05-26T00:26:30.938Z,84.10
2019-05-26T00:29:19.779Z,84.60
2019-05-26T00:32:08.779Z,84.10
2019-05-26T00:34:57.619Z,84.30
2019-05-26T00:37:49.995Z,84.60
2019-05-26T00:40:36.287Z,84.80
2019-05-26T00:43:24.808Z,84.70
2019-05-26T00:46:13.472Z,84.70
2019-05-26T00:49:03.059Z,84.90
2019-05-26T00:51:51.596Z,85.10
2019-05-26T00:54:40.242Z,84.70
2019-05-26T00:57:28.836Z,84.70
2019-05-26T01:00:20.869Z,85.30
2019-05-26T01:03:10.784Z,85.00
2019-05-26T01:06:00.513Z,85.80
2019-05-26T01:08:48.862Z,85.80
2019-05-26T01:11:37.693Z,86.10
2019-05-26T01:14:28.012Z,86.00
2019-05-26T01:17:16.608Z,86.10
2019-05-26T01:20:07.333Z,86.20
2019-05-26T01:22:56.007Z,86.30
2019-05-26T01:25:44.847Z,86.50
2019-05-26T01:28:33.599Z,86.70
2019-05-26T01:31:22.274Z,87.10
2019-05-26T01:34:11.116Z,87.10
2019-05-26T01:37:00.342Z,87.20
2019-05-26T01:39:49.046Z,87.50
2019-05-26T01:42:37.740Z,88.20
2019-05-26T01:45:27.706Z,87.20
2019-05-26T01:48:16.546Z,86.70
2019-05-26T01:51:04.886Z,86.40
2019-05-26T01:53:53.481Z,86.40
2019-05-26T01:56:42.986Z,87.10
2019-05-26T01:59:31.746Z,87.20
2019-05-26T02:02:20.500Z,88.10
2019-05-26T02:05:09.331Z,87.50
2019-05-26T02:07:57.986Z,87.70
2019-05-26T02:10:46.772Z,87.60
2019-05-26T02:13:35.364Z,87.40
2019-05-26T02:16:24.196Z,88.10
2019-05-26T02:19:12.791Z,86.90
2019-05-26T02:22:01.476Z,87.20
2019-05-26T02:24:50.023Z,87.80
2019-05-26T02:27:38.825Z,88.60
2019-05-26T02:30:27.569Z,88.70
2019-05-26T02:33:16.050Z,88.70
2019-05-26T02:36:04.948Z,88.70
2019-05-26T02:39:02.101Z,88.50
2019-05-26T02:41:43.517Z,88.50
2019-05-26T02:44:32.182Z,88.50
2019-05-26T02:47:21.023Z,88.50
2019-05-26T02:50:09.865Z,88.70
2019-05-26T02:52:58.626Z,88.80
2019-05-26T02:55:47.578Z,88.70
2019-05-26T02:58:36.305Z,88.60
2019-05-26T03:01:25.192Z,88.60
2019-05-26T03:04:13.986Z,88.20
2019-05-26T03:07:03.804Z,88.00
2019-05-26T03:09:54.446Z,87.90
2019-05-26T03:12:43.204Z,87.90
2019-05-26T03:15:34.916Z,87.70
2019-05-26T03:18:24.074Z,87.70
2019-05-26T03:21:14.240Z,87.70
2019-05-26T03:24:05.939Z,87.70
2019-05-26T03:26:54.774Z,88.10
2019-05-26T03:29:43.203Z,87.80
2019-05-26T03:32:33.442Z,88.10
2019-05-26T03:35:22.028Z,88.20
2019-05-26T03:38:10.407Z,87.20
2019-05-26T03:40:58.973Z,86.90
2019-05-26T03:43:47.568Z,86.60
2019-05-26T03:46:37.138Z,86.90
2019-05-26T03:49:25.736Z,85.90
2019-05-26T03:52:14.094Z,85.70
2019-05-26T03:55:03.005Z,86.30
2019-05-26T03:57:51.769Z,85.60
2019-05-26T04:00:40.600Z,86.00
2019-05-26T04:03:29.213Z,85.70
2019-05-26T04:06:18.649Z,85.00
2019-05-26T04:09:08.839Z,84.90
2019-05-26T04:11:57.360Z,84.60
2019-05-26T04:14:45.792Z,84.50
2019-05-26T04:17:34.285Z,84.90
2019-05-26T04:20:22.727Z,84.00
2019-05-26T04:23:11.315Z,84.40
2019-05-26T04:25:59.909Z,84.20
2019-05-26T04:28:48.347Z,83.80
2019-05-26T04:31:37.594Z,83.90
2019-05-26T04:34:26.425Z,83.70
2019-05-26T04:37:15.267Z,83.90
2019-05-26T04:40:25.026Z,83.80
2019-05-26T04:42:55.656Z,83.80
2019-05-26T04:45:43.997Z,83.30
2019-05-26T04:48:32.840Z,83.30
2019-05-26T04:51:21.231Z,82.90
2019-05-26T04:54:10.131Z,82.70
2019-05-26T04:56:58.617Z,82.60
2019-05-26T04:59:47.459Z,82.60
2019-05-26T05:02:35.819Z,82.90
2019-05-26T05:05:24.671Z,83.00
2019-05-26T05:08:13.492Z,83.20
2019-05-26T05:11:02.414Z,83.00
2019-05-26T05:13:51.165Z,83.00
2019-05-26T05:16:39.762Z,83.10
2019-05-26T05:19:28.357Z,83.00
2019-05-26T05:22:17.189Z,83.20
2019-05-26T05:25:14.638Z,83.20
2019-05-26T05:27:58.634Z,83.20
2019-05-26T05:30:47.152Z,83.00
2019-05-26T05:33:35.995Z,83.40
2019-05-26T05:36:24.489Z,83.20
2019-05-26T05:39:13.676Z,82.70
2019-05-26T05:42:02.019Z,83.10
2019-05-26T05:44:50.690Z,83.00
2019-05-26T05:47:40.034Z,82.60
2019-05-26T05:50:28.787Z,81.50
2019-05-26T05:53:17.865Z,80.10
2019-05-26T05:56:06.492Z,79.00
2019-05-26T05:58:55.126Z,78.80
2019-05-26T06:01:43.889Z,78.70
2019-05-26T06:04:32.987Z,79.20
2019-05-26T06:07:22.804Z,79.70
2019-05-26T06:10:12.138Z,79.10
2019-05-26T06:13:00.723Z,78.30
2019-05-26T06:15:49.565Z,77.80
2019-05-26T06:18:38.161Z,77.40
2019-05-26T06:21:26.933Z,78.10
2019-05-26T06:24:15.845Z,78.70
2019-05-26T06:27:04.430Z,78.80
2019-05-26T06:29:58.807Z,78.70
2019-05-26T06:32:43.124Z,77.20
2019-05-26T06:35:32.852Z,77.50
2019-05-26T06:38:21.463Z,76.70
2019-05-26T06:41:10.600Z,75.60
2019-05-26T06:43:58.849Z,76.30
2019-05-26T06:46:47.317Z,75.40
2019-05-26T06:49:35.991Z,74.50
2019-05-26T06:52:24.972Z,74.10
2019-05-26T06:55:14.551Z,73.20
2019-05-26T06:58:02.943Z,73.30
2019-05-26T07:00:51.495Z,72.50
2019-05-26T07:03:40.329Z,72.80
2019-05-26T07:06:31.681Z,70.60
2019-05-26T07:09:20.474Z,70.40
2019-05-26T07:12:09.305Z,69.90
2019-05-26T07:14:58.069Z,70.00
2019-05-26T07:17:46.797Z,69.30
2019-05-26T07:20:35.328Z,69.30
2019-05-26T07:23:23.924Z,67.80
2019-05-26T07:26:12.766Z,68.20
2019-05-26T07:29:01.611Z,67.20
2019-05-26T07:31:50.469Z,66.70
2019-05-26T07:34:39.283Z,67.20
2019-05-26T07:37:27.661Z,67.20
2019-05-26T07:40:18.149Z,68.10
2019-05-26T07:43:11.065Z,68.80
2019-05-26T07:46:05.215Z,68.60
2019-05-26T07:48:54.047Z,68.60
2019-05-26T07:51:42.887Z,68.50
2019-05-26T07:54:31.483Z,68.30
2019-05-26T07:57:19.941Z,67.60
2019-05-26T08:00:09.403Z,66.00
2019-05-26T08:02:58.246Z,64.60
2019-05-26T08:05:46.585Z,64.20
2019-05-26T08:08:35.231Z,64.10
2019-05-26T08:11:23.786Z,64.80
2019-05-26T08:14:12.058Z,64.10
2019-05-26T08:17:00.735Z,63.90
2019-05-26T08:19:49.567Z,65.40
2019-05-26T08:22:37.933Z,64.50
2019-05-26T08:25:26.756Z,63.70
2019-05-26T08:28:15.351Z,63.30
2019-05-26T08:31:04.183Z,62.30
2019-05-26T08:33:52.542Z,62.00
2019-05-26T08:36:41.118Z,61.90
2019-05-26T08:39:29.969Z,62.40
2019-05-26T08:42:26.812Z,62.40
2019-05-26T08:45:10.351Z,62.90
2019-05-26T08:47:59.194Z,64.80
2019-05-26T08:50:47.936Z,66.40
2019-05-26T08:53:37.940Z,67.50
2019-05-26T08:56:26.427Z,67.50
2019-05-26T08:59:14.629Z,66.80
2019-05-26T09:02:03.205Z,66.30
2019-05-26T09:04:51.756Z,66.60
2019-05-26T09:07:40.573Z,66.70
2019-05-26T09:10:29.174Z,66.60
2019-05-26T09:13:18.011Z,66.40
2019-05-26T09:16:06.862Z,66.00
2019-05-26T09:18:55.557Z,66.00
2019-05-26T09:21:44.034Z,66.20
2019-05-26T09:24:32.535Z,66.30
2019-05-26T09:27:21.140Z,67.40
2019-05-26T09:30:11.042Z,68.00
2019-05-26T09:32:59.884Z,67.00
2019-05-26T09:35:48.499Z,68.30
2019-05-26T09:38:36.829Z,68.90
2019-05-26T09:41:25.662Z,68.90
2019-05-26T09:44:14.516Z,69.50
2019-05-26T09:47:03.099Z,70.00
2019-05-26T09:49:52.187Z,69.70
2019-05-26T09:52:40.772Z,68.40
2019-05-26T09:55:29.787Z,66.50
2019-05-26T09:58:18.703Z,66.00
2019-05-26T10:01:07.544Z,66.10
2019-05-26T10:03:56.147Z,66.10
2019-05-26T10:06:44.533Z,65.60
2019-05-26T10:09:33.844Z,65.50
2019-05-26T10:12:22.902Z,66.30
2019-05-26T10:15:12.128Z,67.20
2019-05-26T10:18:00.408Z,66.00
2019-05-26T10:20:49.003Z,66.90
2019-05-26T10:23:37.767Z,67.20
2019-05-26T10:26:26.697Z,67.70
2019-05-26T10:29:15.096Z,69.10
2019-05-26T10:32:03.301Z,70.30
2019-05-26T10:34:51.893Z,70.50
2019-05-26T10:37:40.159Z,70.90
2019-05-26T10:40:28.740Z,71.50
2019-05-26T10:43:16.962Z,72.30
2019-05-26T10:46:05.528Z,72.20
2019-05-26T10:48:54.281Z,72.50
2019-05-26T10:51:42.720Z,73.50
2019-05-26T10:54:30.981Z,71.80
2019-05-26T10:57:19.174Z,71.30
2019-05-26T11:00:08.863Z,69.30
2019-05-26T11:02:57.250Z,69.70
2019-05-26T11:05:45.944Z,68.50
2019-05-26T11:08:35.022Z,67.90
2019-05-26T11:11:24.661Z,65.10
2019-05-26T11:14:13.227Z,63.10
2019-05-26T11:17:02.030Z,63.60
2019-05-26T11:19:50.901Z,62.40
2019-05-26T11:22:39.557Z,62.80
2019-05-26T11:25:28.290Z,63.20
2019-05-26T11:28:16.895Z,63.30
2019-05-26T11:31:05.411Z,63.60
2019-05-26T11:33:54.342Z,63.60
2019-05-26T11:36:42.997Z,64.50
2019-05-26T11:39:31.317Z,64.40
2019-05-26T11:42:20.099Z,63.90
2019-05-26T11:45:09.641Z,63.60
2019-05-26T11:47:57.901Z,63.60
2019-05-26T11:50:47.117Z,63.90
2019-05-26T11:53:36.215Z,64.40
2019-05-26T11:56:24.841Z,65.20
2019-05-26T11:59:13.645Z,65.20
2019-05-26T12:02:02.477Z,64.90
2019-05-26T12:04:51.563Z,64.50
2019-05-26T12:07:40.161Z,63.90
2019-05-26T12:10:29.248Z,64.20
2019-05-26T12:13:17.842Z,64.00
2019-05-26T12:16:06.428Z,64.00
2019-05-26T12:18:55.212Z,62.30
2019-05-26T12:21:43.412Z,60.70
2019-05-26T12:24:31.969Z,59.30
2019-05-26T12:27:20.564Z,59.10
2019-05-26T12:30:10.138Z,57.90
2019-05-26T12:32:59.725Z,57.40
2019-05-26T12:35:49.689Z,56.30
2019-05-26T12:38:39.811Z,57.50
2019-05-26T12:41:28.200Z,58.00
2019-05-26T12:44:17.042Z,58.00
2019-05-26T12:47:05.628Z,58.40
2019-05-26T12:49:54.469Z,59.60
2019-05-26T12:52:43.065Z,60.20
2019-05-26T12:55:31.415Z,61.20
2019-05-26T12:58:20.031Z,61.70
2019-05-26T13:01:08.843Z,62.50
2019-05-26T13:03:57.438Z,62.60
2019-05-26T13:06:46.211Z,61.90
2019-05-26T13:09:34.875Z,61.20
2019-05-26T13:12:23.264Z,60.80
2019-05-26T13:15:13.663Z,60.90
2019-05-26T13:18:02.375Z,61.00
2019-05-26T13:20:50.744Z,61.60
2019-05-26T13:23:39.154Z,62.10
2019-05-26T13:26:29.137Z,62.20
2019-05-26T13:29:17.595Z,62.20
2019-05-26T13:32:06.193Z,62.40
2019-05-26T13:34:54.924Z,63.10
2019-05-26T13:37:43.648Z,62.90
2019-05-26T13:40:32.509Z,62.90
2019-05-26T13:43:21.016Z,63.40
2019-05-26T13:46:10.035Z,63.60
2019-05-26T13:48:58.365Z,63.60
2019-05-26T13:51:50.309Z,64.00
2019-05-26T13:54:37.535Z,64.10
2019-05-26T13:57:25.895Z,63.80
2019-05-26T14:00:16.695Z,63.00
2019-05-26T14:03:05.774Z,62.60
2019-05-26T14:05:54.639Z,62.70
2019-05-26T14:08:42.957Z,62.10
2019-05-26T14:11:31.561Z,61.80
2019-05-26T14:14:19.980Z,62.60
2019-05-26T14:17:09.078Z,63.70
2019-05-26T14:20:00.036Z,64.50
2019-05-26T14:22:48.878Z,64.70
2019-05-26T14:25:38.217Z,64.80
2019-05-26T14:28:26.749Z,64.80
2019-05-26T14:31:15.395Z,65.50
2019-05-26T14:34:03.743Z,66.40
2019-05-26T14:36:52.339Z,66.60
2019-05-26T14:39:41.181Z,67.20
2019-05-26T14:42:30.032Z,68.10
2019-05-26T14:45:19.592Z,67.60
2019-05-26T14:48:08.435Z,68.20
2019-05-26T14:50:57.081Z,66.90
2019-05-26T14:53:45.863Z,67.80
2019-05-26T14:56:36.675Z,68.00
2019-05-26T14:59:25.545Z,68.20
2019-05-26T15:02:14.396Z,68.10
2019-05-26T15:05:02.943Z,67.80
2019-05-26T15:07:51.784Z,68.20
2019-05-26T15:10:40.518Z,68.00
2019-05-26T15:13:29.458Z,67.60
2019-05-26T15:16:17.995Z,67.00
2019-05-26T15:19:06.650Z,66.70
2019-05-26T15:21:55.296Z,66.40
2019-05-26T15:24:44.336Z,66.80
2019-05-26T15:27:32.894Z,68.30
2019-05-26T15:30:21.515Z,69.40
2019-05-26T15:33:10.367Z,70.60
2019-05-26T15:35:58.785Z,71.10
2019-05-26T15:38:47.213Z,72.10
2019-05-26T15:41:36.136Z,72.10
2019-05-26T15:44:25.055Z,72.60
2019-05-26T15:47:13.837Z,73.20
2019-05-26T15:50:02.189Z,73.40
2019-05-26T15:52:50.913Z,74.10
2019-05-26T15:55:40.375Z,73.60
2019-05-26T15:58:29.421Z,73.60
2019-05-26T16:01:18.310Z,73.60
2019-05-26T16:04:06.938Z,73.70
2019-05-26T16:07:06.129Z,74.30
2019-05-26T16:09:53.532Z,74.30
2019-05-26T16:12:42.088Z,74.70
2019-05-26T16:15:30.587Z,74.90
2019-05-26T16:18:19.407Z,75.50
2019-05-26T16:21:24.726Z,75.90
2019-05-26T16:23:58.548Z,76.30
2019-05-26T16:26:47.469Z,76.10
2019-05-26T16:29:39.186Z,77.00
2019-05-26T16:32:28.864Z,77.60
2019-05-26T16:35:17.855Z,78.30
2019-05-26T16:38:06.568Z,78.50
2019-05-26T16:40:57.684Z,77.90
2019-05-26T16:43:46.832Z,76.80
2019-05-26T16:46:36.894Z,76.60
2019-05-26T16:49:25.244Z,75.80
2019-05-26T16:52:14.088Z,75.40
2019-05-26T16:55:02.927Z,75.50
2019-05-26T16:57:51.603Z,75.50
2019-05-26T17:00:40.355Z,75.60
2019-05-26T17:03:28.952Z,75.60
2019-05-26T17:06:17.548Z,75.80
2019-05-26T17:09:08.180Z,76.40
2019-05-26T17:11:56.698Z,77.10
2019-05-26T17:14:45.539Z,77.30
2019-05-26T17:17:34.134Z,77.80
2019-05-26T17:20:22.779Z,77.60
2019-05-26T17:23:12.832Z,77.50
2019-05-26T17:26:02.379Z,77.90
2019-05-26T17:28:51.041Z,78.50
2019-05-26T17:31:40.785Z,79.60
2019-05-26T17:34:29.147Z,80.00
2019-05-26T17:37:17.494Z,79.80
2019-05-26T17:40:07.300Z,80.20
2019-05-26T17:42:55.900Z,80.80
2019-05-26T17:45:46.215Z,80.70
2019-05-26T17:48:35.057Z,81.40
2019-05-26T17:51:24.786Z,82.20
2019-05-26T17:54:13.499Z,82.90
2019-05-26T17:57:03.299Z,83.60
2019-05-26T17:59:51.981Z,84.00
2019-05-26T18:02:41.954Z,84.80
2019-05-26T18:05:30.697Z,85.50
2019-05-26T18:08:19.441Z,86.30
2019-05-26T18:11:07.731Z,87.00
2019-05-26T18:13:59.281Z,88.30
2019-05-26T18:16:48.113Z,89.60
2019-05-26T18:19:36.709Z,90.10
2019-05-26T18:22:26.653Z,90.70
2019-05-26T18:25:15.544Z,90.70
2019-05-26T18:28:04.623Z,91.20
2019-05-26T18:30:53.298Z,91.10
2019-05-26T18:33:42.141Z,91.20
2019-05-26T18:36:30.971Z,91.50
2019-05-26T18:39:19.350Z,92.00
2019-05-26T18:42:08.410Z,92.20
2019-05-26T18:44:57.989Z,92.60
2019-05-26T18:48:01.483Z,92.50
2019-05-26T18:50:37.012Z,92.30
2019-05-26T18:53:29.493Z,92.40
2019-05-26T18:56:16.536Z,92.40
2019-05-26T18:59:05.460Z,92.90
2019-05-26T19:01:54.015Z,93.00
2019-05-26T19:04:43.063Z,93.00
2019-05-26T19:07:32.140Z,93.10
2019-05-26T19:10:21.149Z,93.30
2019-05-26T19:13:10.724Z,93.40
2019-05-26T19:15:59.897Z,93.30
2019-05-26T19:18:48.137Z,93.40
2019-05-26T19:21:36.831Z,93.50
2019-05-26T19:24:25.429Z,93.40
2019-05-26T19:27:14.193Z,93.60
2019-05-26T19:30:02.403Z,93.70
2019-05-26T19:32:50.917Z,93.80
2019-05-26T19:35:39.577Z,93.80
2019-05-26T19:38:28.883Z,93.90
2019-05-26T19:41:17.485Z,93.60
2019-05-26T19:44:05.943Z,93.40
2019-05-26T19:46:54.669Z,93.50
2019-05-26T19:49:43.509Z,93.50
2019-05-26T19:52:32.049Z,93.30
2019-05-26T19:55:20.702Z,93.30
2019-05-26T19:58:09.364Z,93.40
2019-05-26T20:00:58.002Z,93.30
2019-05-26T20:03:46.802Z,93.30
2019-05-26T20:06:35.565Z,93.30
2019-05-26T20:09:24.408Z,93.30
2019-05-26T20:12:13.094Z,93.30
2019-05-26T20:15:02.081Z,93.40
2019-05-26T20:17:51.228Z,93.50
2019-05-26T20:20:39.973Z,93.60
2019-05-26T20:23:28.596Z,93.80
2019-05-26T20:26:16.700Z,93.90
2019-05-26T20:29:05.297Z,93.70
2019-05-26T20:31:54.127Z,93.80
2019-05-26T20:34:42.725Z,94.00
2019-05-26T20:37:31.309Z,94.10
2019-05-26T20:40:20.652Z,94.30
2019-05-26T20:43:09.494Z,94.50
2019-05-26T20:45:57.864Z,94.50
2019-05-26T20:48:46.925Z,94.50
2019-05-26T20:51:35.272Z,94.60
2019-05-26T20:54:24.114Z,94.70
2019-05-26T20:57:12.800Z,94.70
2019-05-26T21:00:01.648Z,94.80
2019-05-26T21:02:50.875Z,94.90
2019-05-26T21:05:41.184Z,95.00
2019-05-26T21:08:29.780Z,95.10
2019-05-26T21:11:20.365Z,95.00
2019-05-26T21:14:08.852Z,95.10
2019-05-26T21:16:59.003Z,95.20
2019-05-26T21:19:48.091Z,95.20
2019-05-26T21:22:36.490Z,95.30
2019-05-26T21:25:25.115Z,95.40
2019-05-26T21:28:13.868Z,95.50
2019-05-26T21:31:02.219Z,95.70
2019-05-26T21:33:51.001Z,95.70
2019-05-26T21:36:39.655Z,95.80
2019-05-26T21:39:28.489Z,95.80
2019-05-26T21:42:17.086Z,95.80
2019-05-26T21:45:06.983Z,95.80
2019-05-26T21:47:55.584Z,95.80
2019-05-26T21:50:44.099Z,95.80
2019-05-26T21:53:32.945Z,95.80
2019-05-26T21:56:21.372Z,95.80
2019-05-26T21:59:10.016Z,95.90
2019-05-26T22:01:58.709Z,95.90
2019-05-26T22:04:47.572Z,95.70
2019-05-26T22:07:36.395Z,95.80
2019-05-26T22:10:24.989Z,95.80
2019-05-26T22:13:13.585Z,95.90
2019-05-26T22:16:02.508Z,96.00
2019-05-26T22:18:51.259Z,95.80
2019-05-26T22:21:39.608Z,96.00
2019-05-26T22:24:28.085Z,96.20
2019-05-26T22:27:17.046Z,96.20
2019-05-26T22:30:09.570Z,96.10
2019-05-26T22:32:58.657Z,96.10
2019-05-26T22:35:47.490Z,96.00
2019-05-26T22:38:36.086Z,95.80
2019-05-26T22:41:24.927Z,95.90
2019-05-26T22:44:14.016Z,95.90
2019-05-26T22:47:02.857Z,95.90
2019-05-26T22:49:51.315Z,95.90
2019-05-26T22:52:39.864Z,95.90
2019-05-26T22:55:29.126Z,96.00
2019-05-26T22:58:17.477Z,96.00
2019-05-26T23:01:06.250Z,96.00
2019-05-26T23:03:54.903Z,96.00
2019-05-26T23:06:43.499Z,96.00
2019-05-26T23:09:32.341Z,95.90
2019-05-26T23:12:20.996Z,96.00
2019-05-26T23:15:10.822Z,96.00
2019-05-26T23:17:59.595Z,95.90
2019-05-26T23:20:48.440Z,96.00
2019-05-26T23:23:37.154Z,96.10
2019-05-26T23:26:25.799Z,96.00
2019-05-26T23:29:14.462Z,96.10
2019-05-26T23:32:04.395Z,96.10
2019-05-26T23:34:53.139Z,96.10
2019-05-26T23:37:43.192Z,96.10
2019-05-26T23:40:32.034Z,96.10
2019-05-26T23:43:21.042Z,96.20
2019-05-26T23:46:09.717Z,96.10
2019-05-26T23:48:58.305Z,96.20
2019-05-26T23:51:46.979Z,96.30
2019-05-26T23:54:35.494Z,96.30
2019-05-26T23:57:24.084Z,96.30
